Mowersville, Pennsylvania
Current Conditions -  °F | °C
As of 8:53 AM on Friday 28 Nov 2014 (Local Time) from KRYT Reporting Station
Clear Clear  
Wind Chill: 21°   Ceiling: Unl
Heat Index: 30°   Visibility: 10mi
Dew Point: 16°   Wind: 10mph
Humidity: 56%   Direction: 300°WNW
Pressure: 30.23"   Gusts: 18mph
Location:  40.0414°N, 77.4967°W
Report Text: KRYT 281353Z AUTO 30009G16KT 270V340 10SM CLR M01/M09 A3023 RMK AO2 SLP253 T10111089 $
Loading
Personal Weather Stations






























Interactive Weather Map New forecast layout! Learn more

10-Day Weather Forecast

Advertisements
Track Severe Weather on mobile